createdAt,value
2022-10-01T00:02:06.694Z,4.03
2022-10-01T00:04:37.297Z,3.00
2022-10-01T00:07:09.368Z,3.33
2022-10-01T00:09:36.753Z,3.05
2022-10-01T00:12:04.073Z,2.65
2022-10-01T00:14:31.406Z,2.90
2022-10-01T00:16:58.958Z,3.30
2022-10-01T00:19:26.977Z,3.22
2022-10-01T00:21:54.236Z,3.55
2022-10-01T00:24:21.537Z,3.15
2022-10-01T00:26:48.793Z,3.58
2022-10-01T00:29:16.221Z,3.35
2022-10-01T00:31:43.654Z,3.85
2022-10-01T00:34:14.963Z,3.45
2022-10-01T00:36:42.340Z,3.40
2022-10-01T00:39:11.788Z,3.83
2022-10-01T00:41:39.722Z,3.55
2022-10-01T00:44:45.451Z,3.47
2022-10-01T00:47:33.646Z,3.97
2022-10-01T00:50:28.248Z,3.88
2022-10-01T00:52:59.217Z,3.70
2022-10-01T00:55:32.440Z,3.83
2022-10-01T00:58:00.933Z,3.60
2022-10-01T01:00:28.267Z,3.70
2022-10-01T01:02:55.603Z,4.28
2022-10-01T01:05:23.154Z,4.20
2022-10-01T01:07:53.363Z,4.05
2022-10-01T01:10:37.557Z,3.30
2022-10-01T01:13:26.367Z,4.17
2022-10-01T01:15:56.403Z,3.60
2022-10-01T01:18:34.493Z,3.85
2022-10-01T01:21:20.597Z,3.60
2022-10-01T01:24:16.826Z,3.65
2022-10-01T01:27:12.626Z,3.70
2022-10-01T01:29:54.111Z,3.83
2022-10-01T01:32:36.243Z,3.30
2022-10-01T01:35:06.230Z,3.10
2022-10-01T01:37:39.457Z,3.05
2022-10-01T01:40:11.327Z,3.47
2022-10-01T01:42:42.562Z,3.03
2022-10-01T01:45:15.017Z,3.20
2022-10-01T01:47:44.226Z,2.90
2022-10-01T01:50:14.163Z,2.97
2022-10-01T01:52:41.424Z,2.88
2022-10-01T01:55:09.668Z,2.83
2022-10-01T01:57:40.887Z,3.17
2022-10-01T02:00:09.439Z,3.22
2022-10-01T02:02:39.365Z,3.28
2022-10-01T02:05:14.220Z,4.05
2022-10-01T02:10:34.409Z,2.83
2022-10-01T02:13:27.598Z,3.00
2022-10-01T02:16:12.393Z,3.40
2022-10-01T02:18:53.393Z,3.78
2022-10-01T02:21:28.267Z,3.10
2022-10-01T02:24:14.316Z,3.45
2022-10-01T02:26:45.946Z,3.67
2022-10-01T02:29:17.913Z,3.35
2022-10-01T02:31:48.669Z,3.42
2022-10-01T02:34:20.296Z,3.20
2022-10-01T02:36:48.996Z,3.65
2022-10-01T02:39:19.028Z,3.20
2022-10-01T02:41:49.885Z,3.33
2022-10-01T02:44:22.716Z,3.40
2022-10-01T02:47:08.060Z,3.25
2022-10-01T02:49:36.869Z,3.38
2022-10-01T02:52:34.153Z,2.90
2022-10-01T02:55:26.030Z,3.22
2022-10-01T02:57:53.403Z,2.92
2022-10-01T03:00:21.380Z,2.60
2022-10-01T03:02:50.139Z,2.72
2022-10-01T03:05:17.825Z,2.85
2022-10-01T03:07:45.045Z,2.50
2022-10-01T03:10:13.504Z,2.22
2022-10-01T03:12:42.801Z,2.70
2022-10-01T03:15:11.034Z,2.28
2022-10-01T03:17:38.300Z,2.03
2022-10-01T03:20:06.286Z,2.08
2022-10-01T03:22:33.657Z,2.05
2022-10-01T03:25:00.980Z,2.08
2022-10-01T03:27:28.318Z,2.25
2022-10-01T03:29:55.782Z,1.67
2022-10-01T03:32:23.141Z,1.85
2022-10-01T03:34:50.377Z,1.85
2022-10-01T03:37:17.608Z,1.70
2022-10-01T03:39:44.952Z,1.67
2022-10-01T03:42:12.198Z,1.30
2022-10-01T03:44:39.471Z,1.33
2022-10-01T03:47:06.799Z,1.23
2022-10-01T03:49:34.585Z,1.23
2022-10-01T03:52:03.014Z,1.40
2022-10-01T03:54:31.101Z,1.00
2022-10-01T03:56:58.811Z,1.20
2022-10-01T03:59:27.384Z,0.90
2022-10-01T04:01:54.940Z,0.70
2022-10-01T04:04:22.238Z,0.90
2022-10-01T04:06:49.455Z,0.80
2022-10-01T04:09:16.682Z,0.60
2022-10-01T04:11:44.620Z,0.70
2022-10-01T04:14:11.967Z,0.95
2022-10-01T04:16:39.351Z,0.60
2022-10-01T04:19:06.657Z,0.70
2022-10-01T04:21:34.183Z,0.60
2022-10-01T04:24:03.001Z,0.70
2022-10-01T04:26:30.308Z,0.60
2022-10-01T04:28:57.557Z,0.60
2022-10-01T04:31:24.984Z,0.50
2022-10-01T04:33:57.352Z,0.50
2022-10-01T04:36:25.491Z,0.60
2022-10-01T04:38:57.852Z,0.40
2022-10-01T04:41:26.038Z,0.60
2022-10-01T04:43:53.375Z,0.45
2022-10-01T04:46:20.724Z,0.47
2022-10-01T04:48:49.407Z,0.40
2022-10-01T04:51:17.477Z,0.52
2022-10-01T04:53:44.746Z,0.73
2022-10-01T04:56:12.003Z,0.60
2022-10-01T04:58:39.324Z,0.40
2022-10-01T05:01:06.657Z,0.40
2022-10-01T05:03:34.436Z,0.40
2022-10-01T05:06:01.868Z,0.40
2022-10-01T05:08:31.025Z,0.52
2022-10-01T05:11:00.311Z,0.40
2022-10-01T05:13:30.027Z,0.30
2022-10-01T05:15:58.291Z,0.30
2022-10-01T05:18:25.629Z,0.30
2022-10-01T05:20:52.856Z,0.30
2022-10-01T05:23:20.120Z,0.40
2022-10-01T05:25:47.394Z,0.60
2022-10-01T05:28:19.872Z,0.60
2022-10-01T05:30:50.930Z,0.40
2022-10-01T05:33:18.463Z,0.40
2022-10-01T05:35:45.877Z,0.45
2022-10-01T05:38:13.203Z,0.30
2022-10-01T05:40:44.634Z,0.30
2022-10-01T05:43:12.845Z,0.30
2022-10-01T05:45:40.892Z,0.40
2022-10-01T05:48:09.094Z,0.50
2022-10-01T05:50:42.325Z,0.40
2022-10-01T05:53:11.565Z,0.30
2022-10-01T05:55:38.962Z,0.30
2022-10-01T05:58:11.994Z,0.57
2022-10-01T06:00:40.765Z,0.52
2022-10-01T06:03:08.544Z,0.50
2022-10-01T06:05:36.613Z,0.45
2022-10-01T06:08:09.535Z,0.50
2022-10-01T06:10:37.048Z,0.60
2022-10-01T06:13:08.033Z,0.50
2022-10-01T06:15:38.284Z,0.60
2022-10-01T06:18:08.045Z,0.70
2022-10-01T06:20:35.939Z,0.50
2022-10-01T06:23:09.505Z,0.50
2022-10-01T06:25:38.230Z,0.60
2022-10-01T06:28:07.421Z,0.50
2022-10-01T06:30:37.027Z,0.47
2022-10-01T06:33:07.299Z,0.60
2022-10-01T06:35:36.347Z,0.60
2022-10-01T06:38:03.629Z,0.50
2022-10-01T06:40:32.099Z,0.60
2022-10-01T06:42:59.348Z,0.52
2022-10-01T06:45:31.206Z,0.80
2022-10-01T06:48:02.972Z,0.68
2022-10-01T06:50:31.720Z,0.90
2022-10-01T06:52:59.355Z,0.80
2022-10-01T06:55:29.496Z,0.73
2022-10-01T06:57:58.606Z,0.70
2022-10-01T07:00:27.583Z,0.90
2022-10-01T07:02:55.703Z,0.52
2022-10-01T07:05:24.391Z,0.70
2022-10-01T07:07:51.980Z,1.00
2022-10-01T07:10:20.902Z,0.70
2022-10-01T07:12:49.120Z,0.90
2022-10-01T07:15:18.441Z,0.80
2022-10-01T07:17:48.930Z,0.80
2022-10-01T07:20:20.128Z,0.85
2022-10-01T07:22:48.718Z,0.60
2022-10-01T07:25:16.759Z,0.70
2022-10-01T07:27:44.054Z,0.60
2022-10-01T07:30:11.662Z,0.88
2022-10-01T07:32:38.948Z,0.88
2022-10-01T07:35:06.785Z,0.60
2022-10-01T07:37:34.085Z,0.82
2022-10-01T07:40:06.685Z,0.98
2022-10-01T07:42:35.603Z,0.90
2022-10-01T07:45:06.491Z,0.80
2022-10-01T07:47:33.790Z,0.88
2022-10-01T07:50:01.285Z,0.90
2022-10-01T07:52:28.737Z,1.02
2022-10-01T07:54:56.028Z,0.80
2022-10-01T07:57:23.307Z,0.77
2022-10-01T07:59:55.546Z,0.90
2022-10-01T08:02:23.336Z,1.13
2022-10-01T08:05:09.086Z,0.80
2022-10-01T08:07:36.766Z,0.60
2022-10-01T08:10:04.627Z,0.90
2022-10-01T08:12:31.878Z,0.80
2022-10-01T08:14:59.191Z,0.90
2022-10-01T08:17:29.490Z,0.77
2022-10-01T08:19:56.916Z,1.05
2022-10-01T08:22:24.250Z,0.70
2022-10-01T08:24:51.479Z,1.05
2022-10-01T08:27:18.874Z,0.90
2022-10-01T08:29:46.109Z,1.15
2022-10-01T08:32:13.407Z,1.83
2022-10-01T08:34:40.691Z,2.35
2022-10-01T08:37:07.930Z,1.00
2022-10-01T08:39:36.616Z,1.08
2022-10-01T08:42:05.839Z,1.20
2022-10-01T08:44:41.206Z,1.27
2022-10-01T08:47:38.820Z,1.60
2022-10-01T08:50:31.792Z,1.27
2022-10-01T08:53:04.021Z,0.90
2022-10-01T08:55:36.514Z,1.35
2022-10-01T08:58:10.904Z,1.23
2022-10-01T09:00:44.308Z,1.40
2022-10-01T09:03:14.796Z,1.70
2022-10-01T09:05:55.108Z,1.20
2022-10-01T09:08:57.764Z,1.10
2022-10-01T09:11:48.899Z,1.63
2022-10-01T09:14:53.851Z,1.48
2022-10-01T09:17:21.102Z,1.30
2022-10-01T09:20:11.183Z,1.52
2022-10-01T09:22:41.347Z,1.25
2022-10-01T09:25:24.089Z,1.20
2022-10-01T09:27:57.067Z,1.38
2022-10-01T09:30:25.174Z,1.48
2022-10-01T09:32:58.257Z,1.10
2022-10-01T09:35:35.061Z,1.20
2022-10-01T09:38:25.922Z,1.13
2022-10-01T09:40:55.324Z,1.17
2022-10-01T09:43:33.927Z,1.33
2022-10-01T09:46:02.550Z,1.17
2022-10-01T09:48:38.298Z,1.13
2022-10-01T09:51:17.403Z,0.90
2022-10-01T09:53:58.148Z,1.05
2022-10-01T09:56:33.881Z,1.42
2022-10-01T09:59:16.086Z,1.20
2022-10-01T10:01:51.715Z,1.00
2022-10-01T10:04:26.718Z,1.30
2022-10-01T10:07:05.516Z,1.35
2022-10-01T10:09:35.844Z,1.30
2022-10-01T10:12:03.676Z,1.83
2022-10-01T10:14:42.270Z,1.50
2022-10-01T10:17:16.705Z,1.70
2022-10-01T10:19:52.328Z,1.90
2022-10-01T10:22:26.008Z,2.40
2022-10-01T10:24:54.591Z,2.95
2022-10-01T10:27:30.289Z,2.13
2022-10-01T10:30:18.001Z,3.13
2022-10-01T10:32:47.098Z,2.70
2022-10-01T10:35:19.057Z,2.28
2022-10-01T10:37:57.063Z,2.10
2022-10-01T10:40:32.836Z,2.00
2022-10-01T10:43:00.702Z,2.13
2022-10-01T10:45:38.667Z,2.47
2022-10-01T10:48:11.832Z,3.03
2022-10-01T10:50:44.970Z,2.30
2022-10-01T10:53:24.375Z,2.28
2022-10-01T10:56:01.103Z,2.45
2022-10-01T10:58:31.590Z,2.30
2022-10-01T11:01:02.665Z,2.58
2022-10-01T11:03:32.246Z,3.50
2022-10-01T11:06:20.575Z,3.33
2022-10-01T11:08:57.564Z,2.58
2022-10-01T11:11:39.691Z,3.03
2022-10-01T11:14:23.418Z,2.90
2022-10-01T11:17:20.205Z,2.67
2022-10-01T11:20:22.693Z,2.45
2022-10-01T11:23:16.224Z,2.05
2022-10-01T11:26:21.530Z,1.98
2022-10-01T11:29:03.685Z,2.25
2022-10-01T11:31:43.116Z,1.92
2022-10-01T11:34:48.642Z,2.22
2022-10-01T11:37:28.461Z,1.92
2022-10-01T11:39:58.764Z,2.42
2022-10-01T11:42:35.498Z,2.92
2022-10-01T11:45:41.037Z,2.15
2022-10-01T11:48:30.803Z,2.30
2022-10-01T11:51:08.352Z,1.85
2022-10-01T11:53:45.353Z,2.70
2022-10-01T11:56:45.052Z,2.08
2022-10-01T11:59:22.504Z,2.35
2022-10-01T12:02:02.788Z,2.67
2022-10-01T12:04:36.142Z,2.35
2022-10-01T12:07:26.794Z,1.88
2022-10-01T12:10:33.232Z,2.25
2022-10-01T12:13:15.900Z,2.30
2022-10-01T12:15:55.821Z,3.15
2022-10-01T12:18:46.390Z,2.63
2022-10-01T12:21:36.969Z,2.63
2022-10-01T12:24:17.808Z,2.60
2022-10-01T12:27:02.397Z,2.17
2022-10-01T12:30:10.929Z,2.40
2022-10-01T12:32:58.562Z,2.65
2022-10-01T12:35:47.462Z,2.65
2022-10-01T12:38:24.955Z,2.45
2022-10-01T12:41:17.219Z,2.58
2022-10-01T12:44:33.674Z,2.25
2022-10-01T12:47:04.350Z,2.80
2022-10-01T12:49:36.497Z,1.88
2022-10-01T12:52:44.631Z,1.52
2022-10-01T12:55:29.452Z,2.30
2022-10-01T12:58:02.522Z,2.17
2022-10-01T13:00:36.305Z,3.10
2022-10-01T13:03:48.759Z,2.50
2022-10-01T13:06:48.526Z,1.83
2022-10-01T13:09:31.303Z,2.25
2022-10-01T13:12:23.499Z,3.58
2022-10-01T13:14:53.439Z,3.03
2022-10-01T13:17:37.852Z,2.33
2022-10-01T13:20:22.472Z,2.23
2022-10-01T13:23:01.830Z,2.50
2022-10-01T13:25:45.672Z,2.38
2022-10-01T13:28:32.759Z,2.30
2022-10-01T13:31:09.856Z,2.58
2022-10-01T13:33:37.256Z,2.50
2022-10-01T13:36:06.954Z,2.53
2022-10-01T13:38:46.057Z,2.80
2022-10-01T13:41:34.311Z,2.50
2022-10-01T13:44:12.408Z,2.05
2022-10-01T13:47:06.978Z,2.83
2022-10-01T13:49:37.567Z,2.20
2022-10-01T13:52:05.990Z,2.58
2022-10-01T13:55:00.975Z,2.63
2022-10-01T13:57:28.486Z,2.22
2022-10-01T14:00:16.405Z,2.60
2022-10-01T14:02:57.608Z,2.63
2022-10-01T14:05:29.468Z,2.47
2022-10-01T14:08:11.819Z,1.77
2022-10-01T14:11:04.081Z,1.92
2022-10-01T14:13:53.817Z,1.92
2022-10-01T14:16:21.528Z,1.90
2022-10-01T14:18:50.072Z,2.20
2022-10-01T14:21:29.357Z,1.88
2022-10-01T14:24:11.385Z,1.70
2022-10-01T14:26:57.096Z,2.17
2022-10-01T14:29:48.935Z,2.10
2022-10-01T14:32:34.916Z,2.40
2022-10-01T14:35:28.593Z,2.40
2022-10-01T14:38:01.202Z,2.13
2022-10-01T14:40:41.710Z,2.63
2022-10-01T14:43:20.766Z,2.15
2022-10-01T14:45:52.262Z,2.03
2022-10-01T14:48:19.913Z,2.08
2022-10-01T14:50:51.329Z,2.47
2022-10-01T14:53:21.706Z,2.05
2022-10-01T14:55:51.942Z,1.70
2022-10-01T14:58:33.936Z,2.15
2022-10-01T15:01:01.890Z,2.25
2022-10-01T15:03:40.190Z,1.70
2022-10-01T15:06:15.968Z,2.13
2022-10-01T15:08:47.169Z,1.98
2022-10-01T15:11:17.341Z,1.85
2022-10-01T15:13:46.637Z,1.75
2022-10-01T15:16:17.340Z,1.88
2022-10-01T15:18:50.815Z,2.08
2022-10-01T15:21:22.467Z,2.30
2022-10-01T15:23:50.270Z,1.90
2022-10-01T15:26:25.172Z,2.03
2022-10-01T15:29:05.719Z,1.75
2022-10-01T15:31:33.973Z,2.65
2022-10-01T15:34:03.731Z,1.92
2022-10-01T15:36:32.040Z,1.60
2022-10-01T15:39:18.537Z,1.90
2022-10-01T15:41:54.340Z,2.15
2022-10-01T15:44:46.434Z,2.13
2022-10-01T15:47:19.768Z,2.00
2022-10-01T15:50:15.278Z,1.70
2022-10-01T15:55:34.712Z,2.13
2022-10-01T15:58:23.970Z,2.30
2022-10-01T16:01:04.838Z,2.17
2022-10-01T16:03:36.071Z,2.17
2022-10-01T16:06:06.144Z,2.47
2022-10-01T16:08:48.906Z,2.47
2022-10-01T16:11:18.658Z,1.95
2022-10-01T16:13:49.094Z,1.92
2022-10-01T16:16:21.618Z,2.45
2022-10-01T16:19:08.447Z,2.00
2022-10-01T16:21:40.757Z,2.38
2022-10-01T16:24:28.465Z,2.10
2022-10-01T16:27:00.974Z,2.60
2022-10-01T16:29:28.644Z,2.33
2022-10-01T16:31:56.276Z,1.80
2022-10-01T16:34:27.014Z,3.95
2022-10-01T16:36:54.380Z,3.25
2022-10-01T16:39:23.077Z,2.97
2022-10-01T16:42:12.087Z,2.72
2022-10-01T16:44:39.956Z,2.90
2022-10-01T16:47:09.361Z,2.03
2022-10-01T16:49:36.743Z,2.20
2022-10-01T16:52:04.400Z,2.20
2022-10-01T16:54:31.724Z,3.58
2022-10-01T16:56:59.642Z,3.03
2022-10-01T16:59:27.069Z,1.95
2022-10-01T17:01:55.833Z,2.40
2022-10-01T17:04:23.527Z,2.17
2022-10-01T17:06:50.885Z,1.90
2022-10-01T17:09:18.352Z,2.50
2022-10-01T17:11:46.339Z,2.38
2022-10-01T17:14:16.908Z,2.00
2022-10-01T17:16:45.370Z,2.33
2022-10-01T17:19:13.275Z,2.20
2022-10-01T17:21:41.465Z,2.53
2022-10-01T17:24:12.096Z,2.15
2022-10-01T17:26:41.589Z,2.20
2022-10-01T17:29:09.923Z,2.90
2022-10-01T17:31:40.750Z,1.63
2022-10-01T17:34:08.329Z,2.08
2022-10-01T17:36:35.858Z,1.85
2022-10-01T17:39:03.531Z,2.78
2022-10-01T17:41:30.861Z,2.75
2022-10-01T17:43:58.536Z,2.97
2022-10-01T17:46:25.821Z,2.42
2022-10-01T17:48:53.123Z,2.42
2022-10-01T17:51:20.958Z,2.30
2022-10-01T17:53:48.324Z,2.10
2022-10-01T17:56:17.949Z,2.92
2022-10-01T17:58:46.132Z,3.08
2022-10-01T18:01:16.969Z,1.90
2022-10-01T18:03:44.338Z,2.22
2022-10-01T18:06:15.314Z,4.10
2022-10-01T18:08:58.158Z,2.25
2022-10-01T18:11:28.351Z,2.95
2022-10-01T18:13:55.640Z,4.45
2022-10-01T18:16:23.774Z,3.00
2022-10-01T18:21:46.823Z,3.15
2022-10-01T18:24:15.376Z,2.10
2022-10-01T18:26:42.683Z,2.70
2022-10-01T18:29:19.319Z,3.72
2022-10-01T18:31:50.257Z,2.60
2022-10-01T18:34:58.810Z,3.53
2022-10-01T18:37:40.372Z,3.45
2022-10-01T18:40:11.151Z,2.92
2022-10-01T18:42:51.457Z,3.20
2022-10-01T18:45:52.339Z,5.15
2022-10-01T18:48:31.657Z,3.80
2022-10-01T18:51:11.373Z,3.65
2022-10-01T18:54:05.829Z,3.47
2022-10-01T18:56:38.723Z,3.92
2022-10-01T18:59:24.517Z,3.22
2022-10-01T19:01:51.901Z,2.80
2022-10-01T19:04:49.767Z,3.45
2022-10-01T19:07:19.786Z,3.03
2022-10-01T19:10:04.987Z,2.72
2022-10-01T19:15:57.349Z,3.80
2022-10-01T19:18:51.679Z,2.50
2022-10-01T19:21:21.939Z,3.30
2022-10-01T19:24:04.269Z,2.85
2022-10-01T19:26:34.995Z,3.22
2022-10-01T19:29:21.966Z,2.72
2022-10-01T19:31:58.894Z,2.85
2022-10-01T19:34:37.223Z,3.83
2022-10-01T19:37:16.671Z,3.00
2022-10-01T19:39:48.805Z,3.30
2022-10-01T19:42:31.316Z,3.40
2022-10-01T19:45:00.595Z,4.30
2022-10-01T19:47:38.799Z,3.88
2022-10-01T19:50:24.940Z,2.83
2022-10-01T19:52:55.526Z,3.22
2022-10-01T19:55:24.750Z,2.72
2022-10-01T19:57:52.887Z,3.03
2022-10-01T20:00:22.496Z,2.83
2022-10-01T20:02:57.933Z,2.95
2022-10-01T20:05:29.391Z,2.92
2022-10-01T20:08:11.198Z,2.55
2022-10-01T20:10:45.237Z,3.17
2022-10-01T20:13:50.197Z,2.67
2022-10-01T20:16:47.452Z,2.60
2022-10-01T20:19:33.892Z,3.10
2022-10-01T20:22:30.135Z,3.97
2022-10-01T20:25:11.713Z,2.90
2022-10-01T20:27:48.516Z,3.08
2022-10-01T20:30:21.096Z,3.55
2022-10-01T20:33:49.218Z,3.25
2022-10-01T20:36:34.760Z,4.85
2022-10-01T20:39:12.836Z,2.67
2022-10-01T20:41:48.800Z,2.53
2022-10-01T20:44:31.719Z,3.15
2022-10-01T20:47:20.755Z,3.35
2022-10-01T20:49:58.203Z,4.07
2022-10-01T20:52:37.347Z,4.40
2022-10-01T20:55:14.592Z,3.42
2022-10-01T20:57:51.457Z,3.88
2022-10-01T21:00:23.403Z,4.03
2022-10-01T21:02:59.834Z,4.57
2022-10-01T21:05:34.580Z,3.88
2022-10-01T21:10:45.940Z,4.05
2022-10-01T21:13:33.074Z,3.20
2022-10-01T21:16:09.333Z,3.50
2022-10-01T21:18:48.849Z,3.90
2022-10-01T21:21:40.761Z,3.05
2022-10-01T21:24:33.732Z,4.20
2022-10-01T21:27:20.605Z,4.32
2022-10-01T21:30:10.703Z,3.90
2022-10-01T21:33:03.610Z,4.07
2022-10-01T21:35:41.807Z,4.85
2022-10-01T21:38:41.302Z,3.53
2022-10-01T21:41:18.679Z,3.53
2022-10-01T21:43:55.403Z,3.47
2022-10-01T21:46:51.160Z,3.45
2022-10-01T21:49:37.211Z,3.50
2022-10-01T21:52:16.533Z,3.35
2022-10-01T21:55:12.321Z,2.95
2022-10-01T21:57:45.642Z,3.40
2022-10-01T22:00:22.141Z,3.10
2022-10-01T22:03:22.429Z,3.70
2022-10-01T22:06:04.385Z,3.53
2022-10-01T22:08:40.902Z,3.63
2022-10-01T22:11:17.093Z,4.03
2022-10-01T22:14:04.854Z,3.65
2022-10-01T22:16:39.117Z,3.38
2022-10-01T22:19:29.170Z,3.65
2022-10-01T22:22:03.445Z,2.88
2022-10-01T22:24:39.566Z,2.95
2022-10-01T22:27:12.952Z,2.83
2022-10-01T22:29:50.423Z,3.28
2022-10-01T22:32:20.754Z,3.65
2022-10-01T22:34:55.731Z,3.78
2022-10-01T22:37:48.959Z,3.80
2022-10-01T22:40:27.699Z,4.07
2022-10-01T22:43:13.342Z,3.42
2022-10-01T22:45:57.495Z,3.20
2022-10-01T22:48:45.718Z,3.70
2022-10-01T22:51:32.025Z,3.47
2022-10-01T22:57:14.907Z,3.45
2022-10-01T23:00:11.194Z,4.00
2022-10-01T23:02:45.072Z,3.60
2022-10-01T23:05:37.630Z,3.30
2022-10-01T23:08:28.318Z,3.85
2022-10-01T23:11:10.209Z,4.47
2022-10-01T23:13:59.407Z,3.50
2022-10-01T23:16:56.285Z,4.07
2022-10-01T23:19:41.736Z,3.47
2022-10-01T23:22:57.873Z,4.07
2022-10-01T23:25:39.690Z,4.43
2022-10-01T23:28:33.749Z,4.47
2022-10-01T23:31:31.088Z,4.13
2022-10-01T23:34:31.833Z,4.25
2022-10-01T23:37:28.178Z,5.28
2022-10-01T23:40:01.326Z,3.55
2022-10-01T23:42:35.640Z,4.50
2022-10-01T23:45:11.893Z,3.28
2022-10-01T23:48:03.411Z,4.28
2022-10-01T23:51:01.554Z,4.70
2022-10-01T23:53:42.900Z,4.15
2022-10-01T23:56:40.926Z,4.15
2022-10-01T23:59:33.418Z,4.57
